Time,TemperatureF,DewpointF,PressureIn,WindDirection,WindDirectionDegrees,WindSpeedMPH,WindSpeedGustMPH,Humidity,HourlyPrecipIn,Conditions,Clouds,dailyrainin,SoftwareType,DateUTC
2013-03-28 00:10:00,41.4,27.0,30.06,North,359,4.0,9.0,57,0.00,,,0.00,weatherlink.com 1.10,2013-03-28 04:10:00,
2013-03-28 00:25:00,41.3,27.0,30.07,North,1,5.0,9.0,57,0.00,,,0.00,weatherlink.com 1.10,2013-03-28 04:25:00,
2013-03-28 00:41:00,41.4,28.0,30.07,NNW,336,3.0,9.0,59,0.00,,,0.00,weatherlink.com 1.10,2013-03-28 04:41:00,
2013-03-28 00:56:00,41.0,28.0,30.07,NNW,346,1.0,5.0,60,0.00,,,0.00,weatherlink.com 1.10,2013-03-28 04:56:00,
2013-03-28 01:11:00,40.5,27.0,30.07,NNE,16,1.0,7.0,60,0.00,,,0.00,weatherlink.com 1.10,2013-03-28 05:11:00,
2013-03-28 01:26:00,40.1,27.0,30.07,North,2,2.0,4.0,61,0.00,,,0.00,weatherlink.com 1.10,2013-03-28 05:26:00,
2013-03-28 01:41:00,39.5,27.0,30.06,NNW,344,0.0,3.0,62,0.00,,,0.00,weatherlink.com 1.10,2013-03-28 05:41:00,
2013-03-28 01:56:00,38.7,28.0,30.06,NNW,343,0.0,1.0,65,0.00,,,0.00,weatherlink.com 1.10,2013-03-28 05:56:00,
2013-03-28 02:26:00,38.7,28.0,30.06,NW,323,1.0,4.0,66,0.00,,,0.00,weatherlink.com 1.10,2013-03-28 06:26:00,
2013-03-28 02:41:00,38.9,28.0,30.06,East,82,2.0,5.0,66,0.00,,,0.00,weatherlink.com 1.10,2013-03-28 06:41:00,
2013-03-28 03:41:00,39.3,29.0,30.05,NNW,346,0.0,5.0,68,0.00,,,0.00,weatherlink.com 1.10,2013-03-28 07:41:00,
2013-03-28 03:56:00,38.9,29.0,30.05,NNW,334,2.0,3.0,68,0.00,,,0.00,weatherlink.com 1.10,2013-03-28 07:56:00,
2013-03-28 04:11:00,38.7,29.0,30.05,NE,53,0.0,3.0,69,0.00,,,0.00,weatherlink.com 1.10,2013-03-28 08:11:00,
2013-03-28 04:26:00,38.6,29.0,30.05,NNW,338,0.0,3.0,69,0.00,,,0.00,weatherlink.com 1.10,2013-03-28 08:26:00,
2013-03-28 04:56:00,37.8,29.0,30.05,NE,44,1.0,2.0,70,0.00,,,0.00,weatherlink.com 1.10,2013-03-28 08:56:00,
2013-03-28 05:11:00,37.5,29.0,30.05,North,350,2.0,4.0,71,0.00,,,0.00,weatherlink.com 1.10,2013-03-28 09:11:00,
2013-03-28 05:26:00,37.7,29.0,30.05,North,4,2.0,5.0,70,0.00,,,0.00,weatherlink.com 1.10,2013-03-28 09:26:00,
2013-03-28 05:41:00,37.3,28.0,30.05,ESE,105,0.0,2.0,70,0.00,,,0.00,weatherlink.com 1.10,2013-03-28 09:41:00,
2013-03-28 05:56:00,37.0,28.0,30.05,NNE,26,0.0,2.0,70,0.00,,,0.00,weatherlink.com 1.10,2013-03-28 09:56:00,
2013-03-28 06:11:00,36.7,28.0,30.05,NE,38,0.0,2.0,71,0.00,,,0.00,weatherlink.com 1.10,2013-03-28 10:11:00,
2013-03-28 06:26:00,36.8,28.0,30.05,NNW,340,1.0,4.0,70,0.00,,,0.00,weatherlink.com 1.10,2013-03-28 10:26:00,
2013-03-28 06:41:00,37.1,28.0,30.05,NNW,344,0.0,3.0,69,0.00,,,0.00,weatherlink.com 1.10,2013-03-28 10:41:00,
2013-03-28 07:26:00,36.4,27.0,30.06,NNW,343,0.0,1.0,70,0.00,,,0.00,weatherlink.com 1.10,2013-03-28 11:26:00,
2013-03-28 07:41:00,37.2,28.0,30.06,North,1,2.0,3.0,70,0.00,,,0.00,weatherlink.com 1.10,2013-03-28 11:41:00,
2013-03-28 08:11:00,39.1,29.0,30.06,North,359,0.0,3.0,66,0.00,,,0.00,weatherlink.com 1.10,2013-03-28 12:11:00,
2013-03-28 08:27:00,40.1,29.0,30.07,NNW,340,3.0,6.0,65,0.00,,,0.00,weatherlink.com 1.10,2013-03-28 12:27:00,
2013-03-28 08:42:00,40.7,29.0,30.07,North,4,3.0,7.0,64,0.00,,,0.00,weatherlink.com 1.10,2013-03-28 12:42:00,
2013-03-28 08:57:00,41.8,29.0,30.06,NNW,338,2.0,7.0,62,0.00,,,0.00,weatherlink.com 1.10,2013-03-28 12:57:00,
2013-03-28 09:12:00,43.0,30.0,30.06,NNW,334,3.0,9.0,60,0.00,,,0.00,weatherlink.com 1.10,2013-03-28 13:12:00,
2013-03-28 09:27:00,42.9,30.0,30.07,West,266,3.0,10.0,60,0.00,,,0.00,weatherlink.com 1.10,2013-03-28 13:27:00,
2013-03-28 09:42:00,43.6,30.0,30.06,NNW,327,3.0,10.0,60,0.00,,,0.00,weatherlink.com 1.10,2013-03-28 13:42:00,
2013-03-28 09:57:00,44.5,30.0,30.06,North,359,5.0,13.0,58,0.00,,,0.00,weatherlink.com 1.10,2013-03-28 13:57:00,
2013-03-28 10:12:00,44.7,30.0,30.07,ENE,59,9.0,14.0,57,0.00,,,0.00,weatherlink.com 1.10,2013-03-28 14:12:00,
2013-03-28 10:27:00,45.2,30.0,30.07,NNW,345,8.0,11.0,56,0.00,,,0.00,weatherlink.com 1.10,2013-03-28 14:27:00,
2013-03-28 10:42:00,45.0,30.0,30.08,North,357,3.0,11.0,57,0.00,,,0.00,weatherlink.com 1.10,2013-03-28 14:42:00,
2013-03-28 11:12:00,45.8,31.0,30.08,North,3,2.0,12.0,57,0.00,,,0.00,weatherlink.com 1.10,2013-03-28 15:12:00,
2013-03-28 11:27:00,46.2,31.0,30.08,NNW,333,5.0,11.0,56,0.00,,,0.00,weatherlink.com 1.10,2013-03-28 15:27:00,
2013-03-28 11:42:00,45.8,31.0,30.08,North,356,3.0,13.0,56,0.00,,,0.00,weatherlink.com 1.10,2013-03-28 15:42:00,
2013-03-28 11:57:00,46.1,31.0,30.08,North,3,6.0,11.0,55,0.00,,,0.00,weatherlink.com 1.10,2013-03-28 15:57:00,
2013-03-28 12:12:00,45.3,31.0,30.08,WNW,288,4.0,12.0,57,0.00,,,0.00,weatherlink.com 1.10,2013-03-28 16:12:00,
2013-03-28 12:27:00,45.4,30.0,30.08,NNW,345,1.0,10.0,56,0.00,,,0.00,weatherlink.com 1.10,2013-03-28 16:27:00,
2013-03-28 12:42:00,45.3,31.0,30.08,NE,53,10.0,13.0,57,0.00,,,0.00,weatherlink.com 1.10,2013-03-28 16:42:00,
2013-03-28 12:57:00,46.6,33.0,30.08,North,356,5.0,10.0,60,0.00,,,0.00,weatherlink.com 1.10,2013-03-28 16:57:00,
2013-03-28 13:12:00,46.2,32.0,30.08,North,11,3.0,12.0,58,0.00,,,0.00,weatherlink.com 1.10,2013-03-28 17:12:00,
2013-03-28 13:27:00,47.5,30.0,30.08,North,354,3.0,10.0,52,0.00,,,0.00,weatherlink.com 1.10,2013-03-28 17:27:00,
2013-03-28 13:42:00,47.0,29.0,30.07,NNE,18,2.0,10.0,49,0.00,,,0.00,weatherlink.com 1.10,2013-03-28 17:42:00,
2013-03-28 13:57:00,46.9,28.0,30.08,West,270,1.0,11.0,49,0.00,,,0.00,weatherlink.com 1.10,2013-03-28 17:57:00,
2013-03-28 14:12:00,47.6,28.0,30.08,NNW,347,3.0,11.0,47,0.00,,,0.00,weatherlink.com 1.10,2013-03-28 18:12:00,
2013-03-28 14:27:00,47.4,27.0,30.07,NW,310,4.0,10.0,46,0.00,,,0.00,weatherlink.com 1.10,2013-03-28 18:27:00,
2013-03-28 14:42:00,47.1,27.0,30.07,NW,325,3.0,13.0,45,0.00,,,0.00,weatherlink.com 1.10,2013-03-28 18:42:00,
2013-03-28 14:57:00,47.8,26.0,30.07,NNE,17,10.0,12.0,42,0.00,,,0.00,weatherlink.com 1.10,2013-03-28 18:57:00,
2013-03-28 15:13:00,48.6,26.0,30.07,NNE,29,2.0,15.0,41,0.00,,,0.00,weatherlink.com 1.10,2013-03-28 19:13:00,
2013-03-28 15:28:00,48.1,25.0,30.07,NNE,32,3.0,13.0,41,0.00,,,0.00,weatherlink.com 1.10,2013-03-28 19:28:00,
2013-03-28 15:43:00,48.3,25.0,30.07,North,359,10.0,12.0,41,0.00,,,0.00,weatherlink.com 1.10,2013-03-28 19:43:00,
2013-03-28 15:58:00,48.2,26.0,30.07,NNE,15,3.0,13.0,42,0.00,,,0.00,weatherlink.com 1.10,2013-03-28 19:58:00,
2013-03-28 16:13:00,48.9,26.0,30.07,North,353,3.0,13.0,41,0.00,,,0.00,weatherlink.com 1.10,2013-03-28 20:13:00,
2013-03-28 16:28:00,48.7,26.0,30.07,North,352,3.0,10.0,42,0.00,,,0.00,weatherlink.com 1.10,2013-03-28 20:28:00,
2013-03-28 16:43:00,48.5,26.0,30.07,North,351,1.0,12.0,42,0.00,,,0.00,weatherlink.com 1.10,2013-03-28 20:43:00,
2013-03-28 16:58:00,48.9,27.0,30.08,North,10,5.0,11.0,42,0.00,,,0.00,weatherlink.com 1.10,2013-03-28 20:58:00,
2013-03-28 17:13:00,49.0,26.0,30.08,NW,325,5.0,13.0,41,0.00,,,0.00,weatherlink.com 1.10,2013-03-28 21:13:00,
2013-03-28 17:28:00,48.8,26.0,30.09,North,11,7.0,10.0,42,0.00,,,0.00,weatherlink.com 1.10,2013-03-28 21:28:00,
2013-03-28 17:43:00,48.7,26.0,30.09,NW,325,1.0,11.0,42,0.00,,,0.00,weatherlink.com 1.10,2013-03-28 21:43:00,
2013-03-28 17:58:00,48.6,27.0,30.09,NNW,328,1.0,10.0,43,0.00,,,0.00,weatherlink.com 1.10,2013-03-28 21:58:00,
2013-03-28 18:13:00,48.2,26.0,30.10,NW,323,3.0,9.0,43,0.00,,,0.00,weatherlink.com 1.10,2013-03-28 22:13:00,
2013-03-28 18:28:00,47.6,30.0,30.11,NNW,338,4.0,11.0,50,0.00,,,0.00,weatherlink.com 1.10,2013-03-28 22:28:00,
2013-03-28 18:43:00,47.2,30.0,30.11,NNW,332,4.0,9.0,51,0.00,,,0.00,weatherlink.com 1.10,2013-03-28 22:43:00,
2013-03-28 18:58:00,46.8,30.0,30.12,NNW,341,2.0,9.0,53,0.00,,,0.00,weatherlink.com 1.10,2013-03-28 22:58:00,
2013-03-28 19:13:00,46.4,30.0,30.12,NW,323,0.0,9.0,54,0.00,,,0.00,weatherlink.com 1.10,2013-03-28 23:13:00,
2013-03-28 19:28:00,46.1,31.0,30.13,North,5,7.0,9.0,55,0.00,,,0.00,weatherlink.com 1.10,2013-03-28 23:28:00,
2013-03-28 19:44:00,45.9,30.0,30.14,North,5,5.0,9.0,55,0.00,,,0.00,weatherlink.com 1.10,2013-03-28 23:44:00,
2013-03-28 20:00:00,45.8,30.0,30.14,NNW,336,2.0,9.0,55,0.00,,,0.00,weatherlink.com 1.10,2013-03-29 00:00:00,
2013-03-28 20:13:00,45.6,31.0,30.14,NW,316,4.0,9.0,56,0.00,,,0.00,weatherlink.com 1.10,2013-03-29 00:13:00,
2013-03-28 20:28:00,45.5,30.0,30.15,North,352,0.0,7.0,56,0.00,,,0.00,weatherlink.com 1.10,2013-03-29 00:28:00,
2013-03-28 20:43:00,45.4,30.0,30.15,NNE,28,2.0,7.0,56,0.00,,,0.00,weatherlink.com 1.10,2013-03-29 00:43:00,
2013-03-28 20:59:00,45.2,31.0,30.16,NNW,342,1.0,6.0,57,0.00,,,0.00,weatherlink.com 1.10,2013-03-29 00:59:00,
2013-03-28 21:14:00,44.9,30.0,30.16,NW,307,2.0,13.0,57,0.00,,,0.00,weatherlink.com 1.10,2013-03-29 01:14:00,
2013-03-28 21:29:00,44.6,30.0,30.17,NNE,18,1.0,5.0,58,0.00,,,0.00,weatherlink.com 1.10,2013-03-29 01:29:00,
2013-03-28 21:44:00,44.6,31.0,30.17,NNW,336,0.0,3.0,59,0.00,,,0.00,weatherlink.com 1.10,2013-03-29 01:44:00,
2013-03-28 22:14:00,44.6,30.0,30.17,NNW,337,2.0,7.0,58,0.00,,,0.00,weatherlink.com 1.10,2013-03-29 02:14:00,
2013-03-28 22:29:00,44.5,31.0,30.17,North,352,3.0,5.0,59,0.00,,,0.00,weatherlink.com 1.10,2013-03-29 02:29:00,
2013-03-28 22:44:00,44.4,31.0,30.17,NW,315,0.0,5.0,59,0.00,,,0.00,weatherlink.com 1.10,2013-03-29 02:44:00,
2013-03-28 22:59:00,44.4,31.0,30.18,NNW,348,1.0,5.0,59,0.00,,,0.00,weatherlink.com 1.10,2013-03-29 02:59:00,
2013-03-28 23:29:00,44.2,30.0,30.18,NNW,338,1.0,3.0,59,0.00,,,0.00,weatherlink.com 1.10,2013-03-29 03:29:00,
2013-03-28 23:44:00,44.2,30.0,30.18,NNE,14,1.0,3.0,59,0.00,,,0.00,weatherlink.com 1.10,2013-03-29 03:44:00,
2013-03-28 23:59:00,44.1,30.0,30.18,North,354,0.0,4.0,59,0.00,,,0.00,weatherlink.com 1.10,2013-03-29 03:59:00,